sensor_id;sensor_type;location;lat;lon;timestamp;P1;durP1;ratioP1;P2;durP2;ratioP2
60233;SDS011;49514;43.538;-5.708;2023-05-10T00:01:16;16.42;;;3.00;;
60233;SDS011;49514;43.538;-5.708;2023-05-10T00:03:43;19.63;;;3.20;;
60233;SDS011;49514;43.538;-5.708;2023-05-10T02:00:29;18.58;;;2.75;;
60233;SDS011;49514;43.538;-5.708;2023-05-10T02:22:33;22.52;;;3.20;;
60233;SDS011;49514;43.538;-5.708;2023-05-10T02:25:01;16.60;;;3.25;;
60233;SDS011;49514;43.538;-5.708;2023-05-10T02:27:30;13.98;;;2.60;;
60233;SDS011;49514;43.538;-5.708;2023-05-10T02:29:57;13.60;;;2.53;;
60233;SDS011;49514;43.538;-5.708;2023-05-10T02:32:25;15.23;;;3.50;;
60233;SDS011;49514;43.538;-5.708;2023-05-10T02:34:53;12.57;;;2.75;;
60233;SDS011;49514;43.538;-5.708;2023-05-10T02:37:21;11.00;;;2.35;;
60233;SDS011;49514;43.538;-5.708;2023-05-10T02:39:50;13.73;;;2.53;;
60233;SDS011;49514;43.538;-5.708;2023-05-10T02:42:19;18.60;;;3.15;;
60233;SDS011;49514;43.538;-5.708;2023-05-10T02:44:52;11.88;;;2.33;;
60233;SDS011;49514;43.538;-5.708;2023-05-10T02:47:25;12.13;;;2.25;;
60233;SDS011;49514;43.538;-5.708;2023-05-10T02:49:52;10.77;;;2.40;;
60233;SDS011;49514;43.538;-5.708;2023-05-10T02:52:21;19.55;;;3.03;;
60233;SDS011;49514;43.538;-5.708;2023-05-10T02:54:55;18.38;;;2.85;;
60233;SDS011;49514;43.538;-5.708;2023-05-10T02:57:27;13.32;;;2.22;;
60233;SDS011;49514;43.538;-5.708;2023-05-10T02:59:57;14.98;;;2.45;;
60233;SDS011;49514;43.538;-5.708;2023-05-10T03:02:24;12.40;;;2.63;;
60233;SDS011;49514;43.538;-5.708;2023-05-10T03:04:50;11.30;;;2.42;;
60233;SDS011;49514;43.538;-5.708;2023-05-10T03:07:17;12.75;;;2.13;;
60233;SDS011;49514;43.538;-5.708;2023-05-10T03:09:48;10.60;;;2.17;;
60233;SDS011;49514;43.538;-5.708;2023-05-10T03:14:58;14.73;;;2.97;;
60233;SDS011;49514;43.538;-5.708;2023-05-10T03:17:47;12.85;;;2.83;;
60233;SDS011;49514;43.538;-5.708;2023-05-10T03:20:25;11.30;;;2.65;;
60233;SDS011;49514;43.538;-5.708;2023-05-10T03:23:00;8.88;;;1.88;;
60233;SDS011;49514;43.538;-5.708;2023-05-10T03:25:34;11.70;;;1.60;;
60233;SDS011;49514;43.538;-5.708;2023-05-10T03:28:03;14.77;;;2.17;;
60233;SDS011;49514;43.538;-5.708;2023-05-10T03:30:31;9.18;;;1.92;;
60233;SDS011;49514;43.538;-5.708;2023-05-10T03:33:03;13.05;;;2.17;;
60233;SDS011;49514;43.538;-5.708;2023-05-10T03:35:34;14.27;;;2.90;;
60233;SDS011;49514;43.538;-5.708;2023-05-10T03:38:01;13.55;;;2.78;;
60233;SDS011;49514;43.538;-5.708;2023-05-10T03:40:28;14.27;;;3.23;;
60233;SDS011;49514;43.538;-5.708;2023-05-10T03:42:57;17.40;;;2.70;;
60233;SDS011;49514;43.538;-5.708;2023-05-10T03:45:26;12.48;;;2.35;;
60233;SDS011;49514;43.538;-5.708;2023-05-10T03:47:52;12.70;;;2.00;;
60233;SDS011;49514;43.538;-5.708;2023-05-10T03:50:20;10.95;;;2.13;;
60233;SDS011;49514;43.538;-5.708;2023-05-10T03:52:47;12.32;;;2.15;;
60233;SDS011;49514;43.538;-5.708;2023-05-10T03:55:14;13.82;;;2.45;;
60233;SDS011;49514;43.538;-5.708;2023-05-10T04:07:37;9.52;;;1.80;;
60233;SDS011;49514;43.538;-5.708;2023-05-10T04:10:04;13.02;;;2.80;;
60233;SDS011;49514;43.538;-5.708;2023-05-10T04:12:30;13.68;;;2.63;;
60233;SDS011;49514;43.538;-5.708;2023-05-10T04:14:57;13.77;;;3.05;;
60233;SDS011;49514;43.538;-5.708;2023-05-10T04:17:24;15.25;;;2.95;;
60233;SDS011;49514;43.538;-5.708;2023-05-10T04:19:50;17.88;;;2.60;;
60233;SDS011;49514;43.538;-5.708;2023-05-10T04:22:20;18.58;;;3.33;;
60233;SDS011;49514;43.538;-5.708;2023-05-10T04:24:46;13.98;;;2.53;;
60233;SDS011;49514;43.538;-5.708;2023-05-10T04:27:13;15.50;;;3.22;;
60233;SDS011;49514;43.538;-5.708;2023-05-10T04:29:40;15.98;;;2.53;;
60233;SDS011;49514;43.538;-5.708;2023-05-10T04:32:07;12.27;;;2.25;;
60233;SDS011;49514;43.538;-5.708;2023-05-10T04:34:34;13.45;;;2.35;;
60233;SDS011;49514;43.538;-5.708;2023-05-10T04:37:00;16.90;;;3.15;;
60233;SDS011;49514;43.538;-5.708;2023-05-10T04:39:27;12.68;;;2.10;;
60233;SDS011;49514;43.538;-5.708;2023-05-10T04:41:53;16.23;;;2.85;;
60233;SDS011;49514;43.538;-5.708;2023-05-10T04:44:20;10.63;;;2.28;;
60233;SDS011;49514;43.538;-5.708;2023-05-10T04:46:46;12.18;;;2.45;;
60233;SDS011;49514;43.538;-5.708;2023-05-10T04:49:13;17.23;;;2.53;;
60233;SDS011;49514;43.538;-5.708;2023-05-10T04:51:40;26.75;;;3.75;;
60233;SDS011;49514;43.538;-5.708;2023-05-10T04:54:06;14.60;;;3.25;;
60233;SDS011;49514;43.538;-5.708;2023-05-10T04:56:33;13.68;;;2.90;;
60233;SDS011;49514;43.538;-5.708;2023-05-10T04:58:59;22.75;;;3.40;;
60233;SDS011;49514;43.538;-5.708;2023-05-10T05:01:26;21.50;;;3.33;;
60233;SDS011;49514;43.538;-5.708;2023-05-10T05:03:53;18.25;;;2.97;;
60233;SDS011;49514;43.538;-5.708;2023-05-10T05:06:19;12.93;;;2.40;;
60233;SDS011;49514;43.538;-5.708;2023-05-10T05:08:50;11.35;;;2.33;;
60233;SDS011;49514;43.538;-5.708;2023-05-10T05:11:17;18.55;;;2.60;;
60233;SDS011;49514;43.538;-5.708;2023-05-10T05:13:44;12.02;;;2.78;;
60233;SDS011;49514;43.538;-5.708;2023-05-10T05:16:10;24.55;;;3.53;;
60233;SDS011;49514;43.538;-5.708;2023-05-10T05:18:37;14.13;;;2.95;;
60233;SDS011;49514;43.538;-5.708;2023-05-10T05:21:13;19.38;;;3.38;;
60233;SDS011;49514;43.538;-5.708;2023-05-10T05:23:40;21.42;;;3.65;;
60233;SDS011;49514;43.538;-5.708;2023-05-10T05:26:07;25.98;;;3.42;;
60233;SDS011;49514;43.538;-5.708;2023-05-10T05:28:34;19.17;;;3.05;;
60233;SDS011;49514;43.538;-5.708;2023-05-10T05:31:06;21.65;;;3.65;;
60233;SDS011;49514;43.538;-5.708;2023-05-10T05:33:34;16.77;;;3.17;;
60233;SDS011;49514;43.538;-5.708;2023-05-10T05:36:01;14.02;;;3.45;;
60233;SDS011;49514;43.538;-5.708;2023-05-10T05:38:28;20.40;;;3.42;;
60233;SDS011;49514;43.538;-5.708;2023-05-10T05:40:55;16.10;;;3.25;;
60233;SDS011;49514;43.538;-5.708;2023-05-10T05:43:22;16.98;;;3.20;;
60233;SDS011;49514;43.538;-5.708;2023-05-10T05:45:49;14.10;;;3.00;;
60233;SDS011;49514;43.538;-5.708;2023-05-10T05:48:15;17.75;;;3.13;;
60233;SDS011;49514;43.538;-5.708;2023-05-10T05:50:42;17.02;;;3.63;;
60233;SDS011;49514;43.538;-5.708;2023-05-10T05:53:09;16.42;;;3.72;;
60233;SDS011;49514;43.538;-5.708;2023-05-10T05:55:35;25.52;;;3.70;;
60233;SDS011;49514;43.538;-5.708;2023-05-10T05:58:03;22.73;;;3.20;;
60233;SDS011;49514;43.538;-5.708;2023-05-10T06:00:29;23.63;;;3.80;;
60233;SDS011;49514;43.538;-5.708;2023-05-10T06:02:56;32.28;;;4.07;;
60233;SDS011;49514;43.538;-5.708;2023-05-10T06:05:22;21.80;;;3.63;;
60233;SDS011;49514;43.538;-5.708;2023-05-10T06:07:49;14.70;;;2.65;;
60233;SDS011;49514;43.538;-5.708;2023-05-10T06:10:16;18.67;;;3.33;;
60233;SDS011;49514;43.538;-5.708;2023-05-10T06:12:42;14.82;;;3.33;;
60233;SDS011;49514;43.538;-5.708;2023-05-10T06:15:09;14.98;;;3.47;;
60233;SDS011;49514;43.538;-5.708;2023-05-10T06:17:36;16.90;;;3.60;;
60233;SDS011;49514;43.538;-5.708;2023-05-10T06:20:04;17.42;;;3.22;;
60233;SDS011;49514;43.538;-5.708;2023-05-10T06:22:31;15.80;;;3.13;;
60233;SDS011;49514;43.538;-5.708;2023-05-10T06:24:58;18.65;;;3.38;;
60233;SDS011;49514;43.538;-5.708;2023-05-10T06:27:25;16.80;;;3.45;;
60233;SDS011;49514;43.538;-5.708;2023-05-10T06:29:52;15.48;;;2.88;;
60233;SDS011;49514;43.538;-5.708;2023-05-10T06:32:18;14.98;;;2.83;;
60233;SDS011;49514;43.538;-5.708;2023-05-10T06:34:45;16.42;;;3.13;;
60233;SDS011;49514;43.538;-5.708;2023-05-10T06:37:12;17.83;;;3.33;;
60233;SDS011;49514;43.538;-5.708;2023-05-10T06:39:38;15.93;;;3.40;;
60233;SDS011;49514;43.538;-5.708;2023-05-10T06:42:05;15.98;;;3.15;;
60233;SDS011;49514;43.538;-5.708;2023-05-10T06:44:32;14.48;;;2.83;;
60233;SDS011;49514;43.538;-5.708;2023-05-10T06:46:59;16.83;;;3.00;;
60233;SDS011;49514;43.538;-5.708;2023-05-10T06:49:26;13.15;;;2.83;;
60233;SDS011;49514;43.538;-5.708;2023-05-10T06:51:52;14.25;;;2.80;;
60233;SDS011;49514;43.538;-5.708;2023-05-10T06:54:19;13.63;;;2.80;;
60233;SDS011;49514;43.538;-5.708;2023-05-10T06:56:45;13.40;;;3.42;;
60233;SDS011;49514;43.538;-5.708;2023-05-10T06:59:12;10.80;;;2.80;;
60233;SDS011;49514;43.538;-5.708;2023-05-10T07:01:39;11.37;;;2.53;;
60233;SDS011;49514;43.538;-5.708;2023-05-10T07:04:06;13.05;;;3.05;;
60233;SDS011;49514;43.538;-5.708;2023-05-10T07:06:33;17.27;;;2.87;;
60233;SDS011;49514;43.538;-5.708;2023-05-10T07:09:00;10.57;;;2.63;;
60233;SDS011;49514;43.538;-5.708;2023-05-10T07:11:27;13.07;;;2.80;;
60233;SDS011;49514;43.538;-5.708;2023-05-10T07:13:53;12.55;;;2.75;;
60233;SDS011;49514;43.538;-5.708;2023-05-10T07:16:20;13.20;;;2.93;;
60233;SDS011;49514;43.538;-5.708;2023-05-10T07:18:47;13.43;;;2.70;;
60233;SDS011;49514;43.538;-5.708;2023-05-10T07:21:13;13.60;;;2.70;;
60233;SDS011;49514;43.538;-5.708;2023-05-10T07:23:40;17.35;;;3.17;;
60233;SDS011;49514;43.538;-5.708;2023-05-10T07:26:07;10.03;;;2.73;;
60233;SDS011;49514;43.538;-5.708;2023-05-10T07:28:35;11.98;;;2.55;;
60233;SDS011;49514;43.538;-5.708;2023-05-10T07:31:03;14.00;;;2.97;;
60233;SDS011;49514;43.538;-5.708;2023-05-10T07:33:29;13.43;;;3.03;;
60233;SDS011;49514;43.538;-5.708;2023-05-10T07:35:56;13.30;;;2.58;;
60233;SDS011;49514;43.538;-5.708;2023-05-10T07:38:23;10.98;;;2.50;;
60233;SDS011;49514;43.538;-5.708;2023-05-10T07:40:50;13.20;;;2.92;;
60233;SDS011;49514;43.538;-5.708;2023-05-10T07:43:16;10.13;;;2.30;;
60233;SDS011;49514;43.538;-5.708;2023-05-10T07:45:43;11.57;;;2.50;;
60233;SDS011;49514;43.538;-5.708;2023-05-10T07:48:09;9.18;;;2.38;;
60233;SDS011;49514;43.538;-5.708;2023-05-10T07:50:36;13.07;;;2.50;;
60233;SDS011;49514;43.538;-5.708;2023-05-10T07:53:03;11.35;;;2.53;;
60233;SDS011;49514;43.538;-5.708;2023-05-10T07:55:29;11.93;;;2.50;;
60233;SDS011;49514;43.538;-5.708;2023-05-10T07:57:56;13.30;;;3.03;;
60233;SDS011;49514;43.538;-5.708;2023-05-10T08:00:23;13.95;;;2.97;;
60233;SDS011;49514;43.538;-5.708;2023-05-10T08:02:49;11.60;;;2.40;;
60233;SDS011;49514;43.538;-5.708;2023-05-10T08:05:16;9.43;;;2.40;;
60233;SDS011;49514;43.538;-5.708;2023-05-10T08:07:43;13.43;;;2.55;;
60233;SDS011;49514;43.538;-5.708;2023-05-10T08:10:10;11.87;;;2.97;;
60233;SDS011;49514;43.538;-5.708;2023-05-10T08:12:40;12.80;;;3.20;;
60233;SDS011;49514;43.538;-5.708;2023-05-10T08:15:06;8.60;;;2.60;;
60233;SDS011;49514;43.538;-5.708;2023-05-10T08:17:34;9.40;;;2.50;;
60233;SDS011;49514;43.538;-5.708;2023-05-10T08:20:01;10.60;;;2.50;;
60233;SDS011;49514;43.538;-5.708;2023-05-10T08:22:28;9.33;;;2.40;;
60233;SDS011;49514;43.538;-5.708;2023-05-10T08:24:55;13.15;;;2.50;;
60233;SDS011;49514;43.538;-5.708;2023-05-10T08:27:21;10.75;;;2.58;;
60233;SDS011;49514;43.538;-5.708;2023-05-10T08:29:48;12.53;;;2.77;;
60233;SDS011;49514;43.538;-5.708;2023-05-10T08:32:15;10.40;;;2.60;;
60233;SDS011;49514;43.538;-5.708;2023-05-10T08:34:41;9.87;;;2.37;;
60233;SDS011;49514;43.538;-5.708;2023-05-10T08:37:08;19.25;;;6.32;;
60233;SDS011;49514;43.538;-5.708;2023-05-10T08:39:36;18.77;;;7.97;;
60233;SDS011;49514;43.538;-5.708;2023-05-10T08:42:04;24.30;;;9.55;;
60233;SDS011;49514;43.538;-5.708;2023-05-10T08:44:34;20.13;;;6.80;;
60233;SDS011;49514;43.538;-5.708;2023-05-10T09:31:18;5.67;;;1.13;;
60233;SDS011;49514;43.538;-5.708;2023-05-10T09:33:46;7.07;;;1.48;;
60233;SDS011;49514;43.538;-5.708;2023-05-10T09:36:14;9.35;;;1.40;;
60233;SDS011;49514;43.538;-5.708;2023-05-10T13:21:40;6.68;;;1.50;;
60233;SDS011;49514;43.538;-5.708;2023-05-10T13:26:33;6.72;;;1.40;;
60233;SDS011;49514;43.538;-5.708;2023-05-10T13:29:00;7.45;;;1.40;;
60233;SDS011;49514;43.538;-5.708;2023-05-10T13:53:29;6.22;;;1.20;;
60233;SDS011;49514;43.538;-5.708;2023-05-10T13:55:56;6.57;;;1.00;;
60233;SDS011;49514;43.538;-5.708;2023-05-10T14:03:16;5.57;;;1.38;;
60233;SDS011;49514;43.538;-5.708;2023-05-10T14:05:42;4.90;;;1.40;;
60233;SDS011;49514;43.538;-5.708;2023-05-10T14:08:11;6.03;;;1.40;;
60233;SDS011;49514;43.538;-5.708;2023-05-10T14:10:39;6.05;;;1.25;;
60233;SDS011;49514;43.538;-5.708;2023-05-10T14:13:07;4.30;;;0.98;;
60233;SDS011;49514;43.538;-5.708;2023-05-10T14:15:33;6.57;;;1.35;;
60233;SDS011;49514;43.538;-5.708;2023-05-10T14:18:00;7.22;;;1.52;;
60233;SDS011;49514;43.538;-5.708;2023-05-10T14:20:27;3.75;;;1.20;;
60233;SDS011;49514;43.538;-5.708;2023-05-10T14:22:54;5.43;;;1.65;;
60233;SDS011;49514;43.538;-5.708;2023-05-10T14:25:21;5.15;;;1.10;;
60233;SDS011;49514;43.538;-5.708;2023-05-10T14:27:49;3.67;;;0.85;;
60233;SDS011;49514;43.538;-5.708;2023-05-10T14:30:15;3.53;;;1.08;;
60233;SDS011;49514;43.538;-5.708;2023-05-10T14:32:42;7.00;;;1.10;;
60233;SDS011;49514;43.538;-5.708;2023-05-10T14:35:09;4.57;;;1.30;;
60233;SDS011;49514;43.538;-5.708;2023-05-10T14:37:37;4.43;;;1.17;;
60233;SDS011;49514;43.538;-5.708;2023-05-10T14:40:05;5.30;;;1.30;;
60233;SDS011;49514;43.538;-5.708;2023-05-10T14:42:32;7.80;;;1.45;;
60233;SDS011;49514;43.538;-5.708;2023-05-10T15:48:35;7.63;;;1.50;;
60233;SDS011;49514;43.538;-5.708;2023-05-10T15:58:21;7.13;;;1.52;;
60233;SDS011;49514;43.538;-5.708;2023-05-10T16:00:48;3.97;;;1.10;;
60233;SDS011;49514;43.538;-5.708;2023-05-10T16:52:08;5.82;;;1.10;;
60233;SDS011;49514;43.538;-5.708;2023-05-10T16:54:35;4.18;;;1.17;;
60233;SDS011;49514;43.538;-5.708;2023-05-10T16:57:01;4.57;;;1.30;;
60233;SDS011;49514;43.538;-5.708;2023-05-10T16:59:28;6.00;;;1.30;;
60233;SDS011;49514;43.538;-5.708;2023-05-10T17:01:55;5.83;;;1.50;;
60233;SDS011;49514;43.538;-5.708;2023-05-10T17:04:22;6.10;;;1.30;;
60233;SDS011;49514;43.538;-5.708;2023-05-10T17:06:49;4.60;;;1.40;;
60233;SDS011;49514;43.538;-5.708;2023-05-10T17:09:16;5.18;;;1.50;;
60233;SDS011;49514;43.538;-5.708;2023-05-10T17:11:45;8.27;;;1.77;;
60233;SDS011;49514;43.538;-5.708;2023-05-10T17:14:12;6.18;;;1.48;;
60233;SDS011;49514;43.538;-5.708;2023-05-10T17:16:38;6.45;;;1.40;;
60233;SDS011;49514;43.538;-5.708;2023-05-10T17:19:05;6.72;;;1.60;;
60233;SDS011;49514;43.538;-5.708;2023-05-10T17:21:33;12.15;;;1.73;;
60233;SDS011;49514;43.538;-5.708;2023-05-10T17:24:00;7.25;;;1.60;;
60233;SDS011;49514;43.538;-5.708;2023-05-10T17:26:26;7.22;;;1.88;;
60233;SDS011;49514;43.538;-5.708;2023-05-10T17:28:54;6.45;;;1.50;;
60233;SDS011;49514;43.538;-5.708;2023-05-10T17:31:21;5.75;;;1.60;;
60233;SDS011;49514;43.538;-5.708;2023-05-10T17:33:48;7.05;;;1.55;;
60233;SDS011;49514;43.538;-5.708;2023-05-10T17:36:14;8.90;;;2.03;;
60233;SDS011;49514;43.538;-5.708;2023-05-10T17:38:41;12.80;;;2.03;;
60233;SDS011;49514;43.538;-5.708;2023-05-10T17:41:08;8.23;;;1.80;;
60233;SDS011;49514;43.538;-5.708;2023-05-10T17:43:35;8.80;;;1.50;;
60233;SDS011;49514;43.538;-5.708;2023-05-10T17:46:01;6.95;;;1.55;;
60233;SDS011;49514;43.538;-5.708;2023-05-10T17:48:28;8.32;;;1.75;;
60233;SDS011;49514;43.538;-5.708;2023-05-10T17:50:55;7.47;;;1.77;;
60233;SDS011;49514;43.538;-5.708;2023-05-10T17:53:21;8.43;;;1.98;;
60233;SDS011;49514;43.538;-5.708;2023-05-10T17:55:49;7.32;;;1.73;;
60233;SDS011;49514;43.538;-5.708;2023-05-10T17:58:16;5.80;;;1.60;;
60233;SDS011;49514;43.538;-5.708;2023-05-10T18:05:36;8.68;;;1.50;;
60233;SDS011;49514;43.538;-5.708;2023-05-10T18:08:04;9.63;;;1.90;;
60233;SDS011;49514;43.538;-5.708;2023-05-10T18:10:32;7.97;;;2.05;;
60233;SDS011;49514;43.538;-5.708;2023-05-10T18:12:58;8.77;;;2.05;;
60233;SDS011;49514;43.538;-5.708;2023-05-10T18:15:27;7.57;;;1.83;;
60233;SDS011;49514;43.538;-5.708;2023-05-10T18:17:54;8.03;;;2.00;;
60233;SDS011;49514;43.538;-5.708;2023-05-10T18:20:21;7.90;;;2.03;;
60233;SDS011;49514;43.538;-5.708;2023-05-10T18:22:48;11.50;;;2.35;;
60233;SDS011;49514;43.538;-5.708;2023-05-10T18:25:15;7.38;;;1.60;;
60233;SDS011;49514;43.538;-5.708;2023-05-10T18:27:41;11.02;;;2.10;;
60233;SDS011;49514;43.538;-5.708;2023-05-10T18:30:08;3.40;;;1.20;;
60233;SDS011;49514;43.538;-5.708;2023-05-10T18:35:04;6.53;;;1.55;;
60233;SDS011;49514;43.538;-5.708;2023-05-10T18:37:32;12.52;;;1.80;;
60233;SDS011;49514;43.538;-5.708;2023-05-10T18:40:00;7.03;;;1.70;;
60233;SDS011;49514;43.538;-5.708;2023-05-10T18:42:30;6.88;;;1.60;;
60233;SDS011;49514;43.538;-5.708;2023-05-10T18:49:52;6.97;;;1.67;;
60233;SDS011;49514;43.538;-5.708;2023-05-10T18:52:20;4.82;;;1.25;;
60233;SDS011;49514;43.538;-5.708;2023-05-10T18:54:47;6.57;;;1.45;;
60233;SDS011;49514;43.538;-5.708;2023-05-10T18:59:42;7.53;;;1.60;;
60233;SDS011;49514;43.538;-5.708;2023-05-10T19:02:10;8.82;;;2.10;;
60233;SDS011;49514;43.538;-5.708;2023-05-10T19:04:36;6.07;;;1.30;;
60233;SDS011;49514;43.538;-5.708;2023-05-10T19:07:03;6.63;;;1.40;;
60233;SDS011;49514;43.538;-5.708;2023-05-10T19:09:31;9.40;;;1.83;;
60233;SDS011;49514;43.538;-5.708;2023-05-10T19:11:57;11.00;;;1.83;;
60233;SDS011;49514;43.538;-5.708;2023-05-10T19:14:24;8.85;;;1.17;;
60233;SDS011;49514;43.538;-5.708;2023-05-10T19:16:52;8.85;;;1.48;;
60233;SDS011;49514;43.538;-5.708;2023-05-10T19:19:19;10.30;;;1.95;;
60233;SDS011;49514;43.538;-5.708;2023-05-10T19:21:47;5.65;;;1.20;;
60233;SDS011;49514;43.538;-5.708;2023-05-10T19:24:13;6.72;;;1.33;;
60233;SDS011;49514;43.538;-5.708;2023-05-10T19:26:40;8.68;;;1.33;;
60233;SDS011;49514;43.538;-5.708;2023-05-10T19:29:07;9.77;;;1.55;;
60233;SDS011;49514;43.538;-5.708;2023-05-10T19:31:34;8.63;;;2.03;;
60233;SDS011;49514;43.538;-5.708;2023-05-10T19:34:01;10.98;;;2.00;;
60233;SDS011;49514;43.538;-5.708;2023-05-10T19:36:28;10.85;;;1.83;;
60233;SDS011;49514;43.538;-5.708;2023-05-10T19:38:56;11.13;;;1.73;;
60233;SDS011;49514;43.538;-5.708;2023-05-10T19:41:23;9.13;;;1.92;;
60233;SDS011;49514;43.538;-5.708;2023-05-10T19:43:50;10.35;;;1.67;;
60233;SDS011;49514;43.538;-5.708;2023-05-10T19:46:16;8.93;;;1.77;;
60233;SDS011;49514;43.538;-5.708;2023-05-10T19:48:43;6.93;;;1.50;;
60233;SDS011;49514;43.538;-5.708;2023-05-10T19:51:10;6.68;;;2.05;;
60233;SDS011;49514;43.538;-5.708;2023-05-10T19:53:37;7.72;;;1.60;;
60233;SDS011;49514;43.538;-5.708;2023-05-10T19:56:06;9.32;;;1.50;;
60233;SDS011;49514;43.538;-5.708;2023-05-10T19:58:33;10.55;;;1.92;;
60233;SDS011;49514;43.538;-5.708;2023-05-10T20:01:00;10.10;;;1.98;;
60233;SDS011;49514;43.538;-5.708;2023-05-10T20:03:26;13.52;;;2.40;;
60233;SDS011;49514;43.538;-5.708;2023-05-10T20:05:54;7.32;;;1.40;;
60233;SDS011;49514;43.538;-5.708;2023-05-10T20:08:22;11.63;;;1.90;;
60233;SDS011;49514;43.538;-5.708;2023-05-10T20:10:49;8.18;;;1.40;;
60233;SDS011;49514;43.538;-5.708;2023-05-10T20:13:16;10.80;;;2.25;;
60233;SDS011;49514;43.538;-5.708;2023-05-10T20:15:44;12.93;;;1.85;;
60233;SDS011;49514;43.538;-5.708;2023-05-10T20:18:11;10.23;;;1.63;;
60233;SDS011;49514;43.538;-5.708;2023-05-10T20:20:38;10.13;;;1.90;;
60233;SDS011;49514;43.538;-5.708;2023-05-10T20:23:05;9.52;;;1.75;;
60233;SDS011;49514;43.538;-5.708;2023-05-10T20:25:31;10.15;;;1.60;;
60233;SDS011;49514;43.538;-5.708;2023-05-10T20:27:58;9.80;;;1.80;;
60233;SDS011;49514;43.538;-5.708;2023-05-10T20:30:25;10.98;;;2.10;;
60233;SDS011;49514;43.538;-5.708;2023-05-10T20:32:52;8.85;;;1.92;;
60233;SDS011;49514;43.538;-5.708;2023-05-10T20:35:19;10.13;;;1.90;;
60233;SDS011;49514;43.538;-5.708;2023-05-10T20:37:46;9.52;;;2.22;;
60233;SDS011;49514;43.538;-5.708;2023-05-10T20:40:13;10.13;;;1.95;;
60233;SDS011;49514;43.538;-5.708;2023-05-10T20:42:40;12.38;;;1.75;;
60233;SDS011;49514;43.538;-5.708;2023-05-10T20:45:08;13.20;;;2.20;;
60233;SDS011;49514;43.538;-5.708;2023-05-10T20:47:35;11.95;;;2.30;;
60233;SDS011;49514;43.538;-5.708;2023-05-10T20:50:03;9.88;;;1.83;;
60233;SDS011;49514;43.538;-5.708;2023-05-10T20:52:30;14.73;;;1.80;;
60233;SDS011;49514;43.538;-5.708;2023-05-10T20:54:57;12.23;;;1.70;;
60233;SDS011;49514;43.538;-5.708;2023-05-10T20:57:24;11.35;;;1.80;;
60233;SDS011;49514;43.538;-5.708;2023-05-10T20:59:51;11.85;;;1.58;;
60233;SDS011;49514;43.538;-5.708;2023-05-10T21:02:18;10.93;;;1.80;;
60233;SDS011;49514;43.538;-5.708;2023-05-10T21:04:45;7.05;;;1.40;;
60233;SDS011;49514;43.538;-5.708;2023-05-10T21:07:11;11.35;;;2.03;;
60233;SDS011;49514;43.538;-5.708;2023-05-10T21:09:38;14.38;;;2.35;;
60233;SDS011;49514;43.538;-5.708;2023-05-10T21:12:05;11.48;;;2.03;;
60233;SDS011;49514;43.538;-5.708;2023-05-10T21:14:34;7.93;;;1.52;;
60233;SDS011;49514;43.538;-5.708;2023-05-10T21:17:01;10.35;;;2.00;;
60233;SDS011;49514;43.538;-5.708;2023-05-10T21:19:27;11.52;;;1.88;;
60233;SDS011;49514;43.538;-5.708;2023-05-10T21:21:54;15.18;;;2.50;;
60233;SDS011;49514;43.538;-5.708;2023-05-10T21:24:22;13.45;;;2.90;;
60233;SDS011;49514;43.538;-5.708;2023-05-10T21:26:48;12.68;;;2.67;;
60233;SDS011;49514;43.538;-5.708;2023-05-10T21:29:15;13.75;;;2.83;;
60233;SDS011;49514;43.538;-5.708;2023-05-10T21:31:44;13.65;;;2.35;;
60233;SDS011;49514;43.538;-5.708;2023-05-10T21:34:11;13.82;;;2.20;;
60233;SDS011;49514;43.538;-5.708;2023-05-10T21:41:32;10.60;;;2.13;;
60233;SDS011;49514;43.538;-5.708;2023-05-10T21:43:59;8.90;;;1.98;;
60233;SDS011;49514;43.538;-5.708;2023-05-10T21:46:26;10.30;;;2.20;;
60233;SDS011;49514;43.538;-5.708;2023-05-10T21:48:53;12.23;;;2.20;;
60233;SDS011;49514;43.538;-5.708;2023-05-10T21:51:20;12.85;;;2.10;;
60233;SDS011;49514;43.538;-5.708;2023-05-10T21:53:47;13.40;;;2.40;;
60233;SDS011;49514;43.538;-5.708;2023-05-10T21:56:13;13.73;;;2.47;;
60233;SDS011;49514;43.538;-5.708;2023-05-10T21:58:40;12.07;;;1.88;;
60233;SDS011;49514;43.538;-5.708;2023-05-10T22:01:07;10.23;;;2.15;;
60233;SDS011;49514;43.538;-5.708;2023-05-10T22:03:33;9.98;;;2.38;;
60233;SDS011;49514;43.538;-5.708;2023-05-10T22:06:01;11.55;;;2.33;;
60233;SDS011;49514;43.538;-5.708;2023-05-10T22:08:28;10.10;;;1.95;;
60233;SDS011;49514;43.538;-5.708;2023-05-10T22:10:55;9.57;;;1.83;;
60233;SDS011;49514;43.538;-5.708;2023-05-10T22:13:22;10.43;;;2.10;;
60233;SDS011;49514;43.538;-5.708;2023-05-10T22:15:49;16.23;;;2.08;;
60233;SDS011;49514;43.538;-5.708;2023-05-10T22:18:16;11.63;;;2.03;;
60233;SDS011;49514;43.538;-5.708;2023-05-10T22:20:46;16.08;;;2.03;;
60233;SDS011;49514;43.538;-5.708;2023-05-10T22:23:13;13.98;;;2.33;;
60233;SDS011;49514;43.538;-5.708;2023-05-10T22:25:40;17.23;;;2.40;;
60233;SDS011;49514;43.538;-5.708;2023-05-10T22:28:07;14.88;;;2.22;;
60233;SDS011;49514;43.538;-5.708;2023-05-10T22:30:34;14.43;;;2.85;;
60233;SDS011;49514;43.538;-5.708;2023-05-10T22:33:00;16.23;;;2.63;;
60233;SDS011;49514;43.538;-5.708;2023-05-10T22:35:27;14.23;;;2.50;;
60233;SDS011;49514;43.538;-5.708;2023-05-10T22:37:54;14.75;;;2.25;;
60233;SDS011;49514;43.538;-5.708;2023-05-10T22:40:20;8.63;;;2.17;;
60233;SDS011;49514;43.538;-5.708;2023-05-10T22:42:47;14.05;;;2.25;;
60233;SDS011;49514;43.538;-5.708;2023-05-10T22:45:14;13.23;;;2.38;;
60233;SDS011;49514;43.538;-5.708;2023-05-10T22:47:40;11.50;;;2.33;;
60233;SDS011;49514;43.538;-5.708;2023-05-10T22:50:07;10.93;;;2.25;;
60233;SDS011;49514;43.538;-5.708;2023-05-10T22:52:34;19.48;;;3.10;;
60233;SDS011;49514;43.538;-5.708;2023-05-10T22:55:04;12.40;;;2.67;;
60233;SDS011;49514;43.538;-5.708;2023-05-10T22:57:32;14.77;;;2.90;;
60233;SDS011;49514;43.538;-5.708;2023-05-10T22:59:59;13.40;;;2.17;;
60233;SDS011;49514;43.538;-5.708;2023-05-10T23:02:25;10.85;;;2.38;;
60233;SDS011;49514;43.538;-5.708;2023-05-10T23:04:52;14.82;;;2.38;;
60233;SDS011;49514;43.538;-5.708;2023-05-10T23:07:18;9.45;;;2.05;;
60233;SDS011;49514;43.538;-5.708;2023-05-10T23:09:45;8.85;;;1.85;;
60233;SDS011;49514;43.538;-5.708;2023-05-10T23:12:12;12.88;;;2.85;;
60233;SDS011;49514;43.538;-5.708;2023-05-10T23:14:39;11.18;;;2.38;;
60233;SDS011;49514;43.538;-5.708;2023-05-10T23:17:06;12.88;;;2.85;;
60233;SDS011;49514;43.538;-5.708;2023-05-10T23:19:33;12.77;;;2.85;;
60233;SDS011;49514;43.538;-5.708;2023-05-10T23:22:00;13.13;;;3.25;;
60233;SDS011;49514;43.538;-5.708;2023-05-10T23:24:26;13.67;;;2.77;;
60233;SDS011;49514;43.538;-5.708;2023-05-10T23:26:53;16.67;;;3.50;;
60233;SDS011;49514;43.538;-5.708;2023-05-10T23:29:20;13.57;;;3.30;;
60233;SDS011;49514;43.538;-5.708;2023-05-10T23:31:48;12.93;;;3.13;;
60233;SDS011;49514;43.538;-5.708;2023-05-10T23:34:16;12.57;;;3.63;;
60233;SDS011;49514;43.538;-5.708;2023-05-10T23:36:43;11.90;;;3.00;;
60233;SDS011;49514;43.538;-5.708;2023-05-10T23:39:09;13.57;;;2.83;;
60233;SDS011;49514;43.538;-5.708;2023-05-10T23:41:36;10.95;;;2.55;;
60233;SDS011;49514;43.538;-5.708;2023-05-10T23:44:03;12.63;;;2.70;;
60233;SDS011;49514;43.538;-5.708;2023-05-10T23:46:30;9.67;;;2.50;;
60233;SDS011;49514;43.538;-5.708;2023-05-10T23:48:56;12.32;;;2.70;;
60233;SDS011;49514;43.538;-5.708;2023-05-10T23:51:23;9.85;;;2.42;;
60233;SDS011;49514;43.538;-5.708;2023-05-10T23:53:50;10.75;;;2.10;;
60233;SDS011;49514;43.538;-5.708;2023-05-10T23:56:21;11.20;;;2.53;;
60233;SDS011;49514;43.538;-5.708;2023-05-10T23:59:03;9.10;;;2.58;;
